sensor_id;sensor_type;location;lat;lon;timestamp;pressure;altitude;pressure_sealevel;temperature;humidity
74435;BME280;62867;52.038;29.256;2023-02-15T00:01:23;1033.6;;;3.2;59.5
74435;BME280;62867;52.038;29.256;2023-02-15T00:06:41;1033.7;;;3.1;59.6
74435;BME280;62867;52.038;29.256;2023-02-15T00:11:25;1033.6;;;3.1;59.4
74435;BME280;62867;52.038;29.256;2023-02-15T00:16:35;1033.7;;;3.1;59.1
74435;BME280;62867;52.038;29.256;2023-02-15T00:21:36;1033.7;;;3;59.6
74435;BME280;62867;52.038;29.256;2023-02-15T00:26:23;1033.7;;;2.9;59.5
74435;BME280;62867;52.038;29.256;2023-02-15T00:31:57;1033.8;;;2.8;60.1
74435;BME280;62867;52.038;29.256;2023-02-15T00:36:55;1033.8;;;2.7;59.8
74435;BME280;62867;52.038;29.256;2023-02-15T00:41:31;1033.8;;;2.6;60
74435;BME280;62867;52.038;29.256;2023-02-15T00:46:57;1033.8;;;2.5;59.7
74435;BME280;62867;52.038;29.256;2023-02-15T00:51:57;1033.8;;;2.4;60.3
74435;BME280;62867;52.038;29.256;2023-02-15T00:56:35;1033.8;;;2.3;60.3
74435;BME280;62867;52.038;29.256;2023-02-15T01:01:12;1033.8;;;2.2;61
74435;BME280;62867;52.038;29.256;2023-02-15T01:06:57;1033.9;;;2.1;61.5
74435;BME280;62867;52.038;29.256;2023-02-15T01:11:12;1033.9;;;2;61.3
74435;BME280;62867;52.038;29.256;2023-02-15T01:16:43;1033.9;;;1.9;61.9
74435;BME280;62867;52.038;29.256;2023-02-15T01:21:24;1033.9;;;1.8;62.1
74435;BME280;62867;52.038;29.256;2023-02-15T01:26:45;1033.9;;;1.7;62
74435;BME280;62867;52.038;29.256;2023-02-15T01:31:47;1034;;;1.6;62.5
74435;BME280;62867;52.038;29.256;2023-02-15T01:36:41;1034;;;1.5;63.1
74435;BME280;62867;52.038;29.256;2023-02-15T01:41:57;1034;;;1.5;63.3
74435;BME280;62867;52.038;29.256;2023-02-15T01:46:11;1034;;;1.4;63.6
74435;BME280;62867;52.038;29.256;2023-02-15T01:51:20;1034;;;1.4;63.6
74435;BME280;62867;52.038;29.256;2023-02-15T01:56:12;1034;;;1.4;63.9
74435;BME280;62867;52.038;29.256;2023-02-15T02:01:47;1034;;;1.3;63.6
74435;BME280;62867;52.038;29.256;2023-02-15T02:06:11;1034;;;1.3;63.5
74435;BME280;62867;52.038;29.256;2023-02-15T02:11:11;1034.1;;;1.2;63.9
74435;BME280;62867;52.038;29.256;2023-02-15T02:16:47;1034.1;;;1.2;63.9
74435;BME280;62867;52.038;29.256;2023-02-15T02:21:51;1034.2;;;1.2;63.9
74435;BME280;62867;52.038;29.256;2023-02-15T02:27:02;1034.3;;;1.1;63.9
74435;BME280;62867;52.038;29.256;2023-02-15T02:31:37;1034.4;;;1.1;64
74435;BME280;62867;52.038;29.256;2023-02-15T02:36:58;1034.4;;;1.1;64
74435;BME280;62867;52.038;29.256;2023-02-15T02:41:30;1034.5;;;1;64.3
74435;BME280;62867;52.038;29.256;2023-02-15T02:46:50;1034.4;;;1;64.2
74435;BME280;62867;52.038;29.256;2023-02-15T02:51:11;1034.5;;;0.9;64.9
74435;BME280;62867;52.038;29.256;2023-02-15T02:56:49;1034.5;;;0.9;64.5
74435;BME280;62867;52.038;29.256;2023-02-15T03:01:27;1034.5;;;0.9;64.7
74435;BME280;62867;52.038;29.256;2023-02-15T03:06:36;1034.6;;;0.8;64.8
74435;BME280;62867;52.038;29.256;2023-02-15T03:11:43;1034.6;;;0.8;65
74435;BME280;62867;52.038;29.256;2023-02-15T03:16:11;1034.7;;;0.8;65.1
74435;BME280;62867;52.038;29.256;2023-02-15T03:22:00;1034.7;;;0.8;64.8
74435;BME280;62867;52.038;29.256;2023-02-15T03:26:33;1034.7;;;0.8;64.5
74435;BME280;62867;52.038;29.256;2023-02-15T03:31:58;1034.8;;;0.8;64.6
74435;BME280;62867;52.038;29.256;2023-02-15T03:36:39;1034.8;;;0.7;64.8
74435;BME280;62867;52.038;29.256;2023-02-15T03:41:42;1034.8;;;0.7;64.8
74435;BME280;62867;52.038;29.256;2023-02-15T03:46:13;1034.8;;;0.6;65.4
74435;BME280;62867;52.038;29.256;2023-02-15T03:51:48;1034.8;;;0.6;65.5
74435;BME280;62867;52.038;29.256;2023-02-15T03:56:23;1034.8;;;0.5;65.4
74435;BME280;62867;52.038;29.256;2023-02-15T04:01:44;1034.9;;;0.4;65.9
74435;BME280;62867;52.038;29.256;2023-02-15T04:06:41;1034.9;;;0.4;65.9
74435;BME280;62867;52.038;29.256;2023-02-15T04:11:55;1034.9;;;0.4;65.8
74435;BME280;62867;52.038;29.256;2023-02-15T04:16:57;1035;;;0.4;65.8
74435;BME280;62867;52.038;29.256;2023-02-15T04:21:43;1035;;;0.3;65.7
74435;BME280;62867;52.038;29.256;2023-02-15T04:26:55;1035;;;0.3;65.9
74435;BME280;62867;52.038;29.256;2023-02-15T04:31:11;1035;;;0.3;66
74435;BME280;62867;52.038;29.256;2023-02-15T04:36:23;1035;;;0.2;66.1
74435;BME280;62867;52.038;29.256;2023-02-15T04:41:47;1035;;;0.1;66.3
74435;BME280;62867;52.038;29.256;2023-02-15T04:46:49;1035;;;0.1;66.4
74435;BME280;62867;52.038;29.256;2023-02-15T04:51:37;1035.1;;;0.1;66.2
74435;BME280;62867;52.038;29.256;2023-02-15T04:56:57;1035.1;;;0;66.4
74435;BME280;62867;52.038;29.256;2023-02-15T05:01:35;1035.2;;;-0.1;66.6
74435;BME280;62867;52.038;29.256;2023-02-15T05:06:57;1035.2;;;-0.1;66.8
74435;BME280;62867;52.038;29.256;2023-02-15T05:11:45;1035.3;;;-0.1;66.3
74435;BME280;62867;52.038;29.256;2023-02-15T05:16:35;1035.3;;;-0.1;66.6
74435;BME280;62867;52.038;29.256;2023-02-15T05:21:35;1035.3;;;-0.1;66.9
74435;BME280;62867;52.038;29.256;2023-02-15T05:26:12;1035.4;;;-0.1;66.6
74435;BME280;62867;52.038;29.256;2023-02-15T05:31:23;1035.5;;;0;66.6
74435;BME280;62867;52.038;29.256;2023-02-15T05:36:23;1035.5;;;0;66.6
74435;BME280;62867;52.038;29.256;2023-02-15T05:41:41;1035.4;;;0;66.4
74435;BME280;62867;52.038;29.256;2023-02-15T05:46:37;1035.5;;;0;66.8
74435;BME280;62867;52.038;29.256;2023-02-15T05:51:55;1035.5;;;0;66.4
74435;BME280;62867;52.038;29.256;2023-02-15T05:56:23;1035.6;;;0;66.4
74435;BME280;62867;52.038;29.256;2023-02-15T06:01:43;1035.7;;;0;66.5
74435;BME280;62867;52.038;29.256;2023-02-15T06:06:49;1035.7;;;0;66.6
74435;BME280;62867;52.038;29.256;2023-02-15T06:11:23;1035.7;;;0.2;66.5
74435;BME280;62867;52.038;29.256;2023-02-15T06:16:35;1035.7;;;0.3;66.5
74435;BME280;62867;52.038;29.256;2023-02-15T06:21:37;1035.8;;;0.4;66
74435;BME280;62867;52.038;29.256;2023-02-15T06:26:59;1035.9;;;0.5;65.5
74435;BME280;62867;52.038;29.256;2023-02-15T06:31:55;1035.9;;;0.7;65.2
74435;BME280;62867;52.038;29.256;2023-02-15T06:36:30;1035.9;;;0.8;65
74435;BME280;62867;52.038;29.256;2023-02-15T06:41:11;1035.8;;;1;64.5
74435;BME280;62867;52.038;29.256;2023-02-15T06:46:59;1035.9;;;1.1;63.8
74435;BME280;62867;52.038;29.256;2023-02-15T06:51:35;1035.9;;;1.3;63.4
74435;BME280;62867;52.038;29.256;2023-02-15T06:56:43;1036;;;1.5;62.6
74435;BME280;62867;52.038;29.256;2023-02-15T07:01:35;1036;;;1.7;62.3
74435;BME280;62867;52.038;29.256;2023-02-15T07:06:11;1036.1;;;1.9;62.2
74435;BME280;62867;52.038;29.256;2023-02-15T07:11:35;1036.1;;;2;61.4
74435;BME280;62867;52.038;29.256;2023-02-15T07:16:11;1036.1;;;2.2;61.5
74435;BME280;62867;52.038;29.256;2023-02-15T07:21:55;1036;;;2.3;61
74435;BME280;62867;52.038;29.256;2023-02-15T07:26:51;1036.1;;;2.4;60.6
74435;BME280;62867;52.038;29.256;2023-02-15T07:31:31;1036.1;;;2.6;60.2
74435;BME280;62867;52.038;29.256;2023-02-15T07:36:57;1036.1;;;2.8;60.2
74435;BME280;62867;52.038;29.256;2023-02-15T07:41:55;1036.1;;;2.9;59.6
74435;BME280;62867;52.038;29.256;2023-02-15T07:46:35;1036.2;;;3;58.7
74435;BME280;62867;52.038;29.256;2023-02-15T07:51:19;1036.2;;;3.1;57.7
74435;BME280;62867;52.038;29.256;2023-02-15T07:56:49;1036.1;;;3.3;57.6
74435;BME280;62867;52.038;29.256;2023-02-15T08:01:11;1036.1;;;3.4;57.3
74435;BME280;62867;52.038;29.256;2023-02-15T08:06:22;1036;;;3.6;56.1
74435;BME280;62867;52.038;29.256;2023-02-15T08:11:36;1036;;;3.8;55.9
74435;BME280;62867;52.038;29.256;2023-02-15T08:16:44;1035.9;;;4.1;54.9
74435;BME280;62867;52.038;29.256;2023-02-15T08:21:48;1036;;;4.4;54.8
74435;BME280;62867;52.038;29.256;2023-02-15T08:26:46;1035.9;;;4.7;54.3
74435;BME280;62867;52.038;29.256;2023-02-15T08:31:54;1036;;;4.9;54.2
74435;BME280;62867;52.038;29.256;2023-02-15T08:36:24;1036;;;5.2;53.4
74435;BME280;62867;52.038;29.256;2023-02-15T08:41:47;1036;;;5.4;52.9
74435;BME280;62867;52.038;29.256;2023-02-15T08:46:46;1036;;;5.5;52.1
74435;BME280;62867;52.038;29.256;2023-02-15T08:51:49;1036;;;5.7;51.1
74435;BME280;62867;52.038;29.256;2023-02-15T08:56:20;1035.9;;;5.7;50.2
74435;BME280;62867;52.038;29.256;2023-02-15T09:01:34;1035.9;;;5.8;50.2
74435;BME280;62867;52.038;29.256;2023-02-15T09:06:31;1035.9;;;5.7;49.9
74435;BME280;62867;52.038;29.256;2023-02-15T09:11:34;1035.9;;;5.6;49.8
74435;BME280;62867;52.038;29.256;2023-02-15T09:16:57;1035.8;;;5.6;50.3
74435;BME280;62867;52.038;29.256;2023-02-15T09:21:12;1035.7;;;5.6;51.2
74435;BME280;62867;52.038;29.256;2023-02-15T09:26:55;1035.8;;;5.7;50.7
74435;BME280;62867;52.038;29.256;2023-02-15T09:31:24;1035.7;;;5.9;50.7
74435;BME280;62867;52.038;29.256;2023-02-15T09:36:45;1035.7;;;5.9;49.5
74435;BME280;62867;52.038;29.256;2023-02-15T09:41:15;1035.7;;;5.8;49.7
74435;BME280;62867;52.038;29.256;2023-02-15T09:46:55;1035.7;;;5.9;49.4
74435;BME280;62867;52.038;29.256;2023-02-15T09:51:27;1035.7;;;5.8;48.5
74435;BME280;62867;52.038;29.256;2023-02-15T09:56:13;1035.6;;;5.8;48.1
74435;BME280;62867;52.038;29.256;2023-02-15T10:01:48;1035.6;;;5.9;48.3
74435;BME280;62867;52.038;29.256;2023-02-15T10:06:53;1035.5;;;6;47.8
74435;BME280;62867;52.038;29.256;2023-02-15T10:12:03;1035.4;;;6.2;47.6
74435;BME280;62867;52.038;29.256;2023-02-15T10:16:48;1035.4;;;6.5;47.1
74435;BME280;62867;52.038;29.256;2023-02-15T10:22:02;1035.4;;;6.7;46.2
74435;BME280;62867;52.038;29.256;2023-02-15T10:26:12;1035.3;;;6.8;46.4
74435;BME280;62867;52.038;29.256;2023-02-15T10:31:46;1035.3;;;6.8;47.4
74435;BME280;62867;52.038;29.256;2023-02-15T10:36:16;1035.3;;;6.9;47
74435;BME280;62867;52.038;29.256;2023-02-15T10:41:51;1035.2;;;7;47.3
74435;BME280;62867;52.038;29.256;2023-02-15T10:46:32;1035.1;;;7.2;46.9
74435;BME280;62867;52.038;29.256;2023-02-15T10:51:38;1035.1;;;7.5;45.9
74435;BME280;62867;52.038;29.256;2023-02-15T10:56:51;1035.1;;;7.6;45
74435;BME280;62867;52.038;29.256;2023-02-15T11:02:00;1035.1;;;7.9;44.2
74435;BME280;62867;52.038;29.256;2023-02-15T11:07:01;1035.1;;;7.9;44.4
74435;BME280;62867;52.038;29.256;2023-02-15T11:11:47;1035.1;;;7.9;43.7
74435;BME280;62867;52.038;29.256;2023-02-15T11:17:02;1035.1;;;8;43.2
74435;BME280;62867;52.038;29.256;2023-02-15T11:21:24;1035.1;;;8;43.1
74435;BME280;62867;52.038;29.256;2023-02-15T11:26:46;1035;;;8;43.5
74435;BME280;62867;52.038;29.256;2023-02-15T11:31:37;1035;;;8.1;43.2
74435;BME280;62867;52.038;29.256;2023-02-15T11:36:47;1035;;;8.1;43
74435;BME280;62867;52.038;29.256;2023-02-15T11:41:38;1035;;;7.9;43.5
74435;BME280;62867;52.038;29.256;2023-02-15T11:46:59;1035;;;7.9;44
74435;BME280;62867;52.038;29.256;2023-02-15T11:51:35;1035;;;8;43
74435;BME280;62867;52.038;29.256;2023-02-15T11:57:03;1035;;;8.2;41.6
74435;BME280;62867;52.038;29.256;2023-02-15T12:01:44;1034.9;;;8.4;41.8
74435;BME280;62867;52.038;29.256;2023-02-15T12:06:37;1034.9;;;8.6;41
74435;BME280;62867;52.038;29.256;2023-02-15T12:11:22;1034.9;;;8.6;40.1
74435;BME280;62867;52.038;29.256;2023-02-15T12:16:11;1034.8;;;9.2;40
74435;BME280;62867;52.038;29.256;2023-02-15T12:21:41;1034.8;;;9.9;38.4
74435;BME280;62867;52.038;29.256;2023-02-15T12:26:24;1034.8;;;10.3;38.6
74435;BME280;62867;52.038;29.256;2023-02-15T12:31:32;1034.8;;;10.4;38.5
74435;BME280;62867;52.038;29.256;2023-02-15T12:36:40;1034.7;;;10.7;38.7
74435;BME280;62867;52.038;29.256;2023-02-15T12:42:00;1034.7;;;11;38.3
74435;BME280;62867;52.038;29.256;2023-02-15T12:46:35;1034.7;;;10.5;38.5
74435;BME280;62867;52.038;29.256;2023-02-15T12:51:46;1034.8;;;10.1;37.9
74435;BME280;62867;52.038;29.256;2023-02-15T12:56:26;1034.7;;;9.7;37.7
74435;BME280;62867;52.038;29.256;2023-02-15T13:01:12;1034.7;;;9.1;37.9
74435;BME280;62867;52.038;29.256;2023-02-15T13:06:19;1034.7;;;8.7;38.3
74435;BME280;62867;52.038;29.256;2023-02-15T13:11:13;1034.8;;;8.3;39.1
74435;BME280;62867;52.038;29.256;2023-02-15T13:17:02;1034.7;;;8.1;40.2
74435;BME280;62867;52.038;29.256;2023-02-15T13:22:02;1034.6;;;8.1;40.8
74435;BME280;62867;52.038;29.256;2023-02-15T13:26:13;1034.7;;;8.2;40.6
74435;BME280;62867;52.038;29.256;2023-02-15T13:32:06;1034.7;;;8;40.8
74435;BME280;62867;52.038;29.256;2023-02-15T13:37:01;1034.7;;;7.7;41.4
74435;BME280;62867;52.038;29.256;2023-02-15T13:41:42;1034.7;;;7.4;41.8
74435;BME280;62867;52.038;29.256;2023-02-15T13:46:43;1034.7;;;7.2;42.6
74435;BME280;62867;52.038;29.256;2023-02-15T13:51:49;1034.8;;;7.1;42
74435;BME280;62867;52.038;29.256;2023-02-15T13:56:25;1034.7;;;6.9;42.4
74435;BME280;62867;52.038;29.256;2023-02-15T14:01:23;1034.8;;;6.7;43.2
74435;BME280;62867;52.038;29.256;2023-02-15T14:06:36;1034.9;;;6.6;45
74435;BME280;62867;52.038;29.256;2023-02-15T14:11:52;1034.9;;;6.4;45
74435;BME280;62867;52.038;29.256;2023-02-15T14:16:53;1034.9;;;6.3;46.1
74435;BME280;62867;52.038;29.256;2023-02-15T14:21:36;1034.9;;;6.3;45.9
74435;BME280;62867;52.038;29.256;2023-02-15T14:27:04;1034.8;;;6.3;45.9
74435;BME280;62867;52.038;29.256;2023-02-15T14:31:34;1034.8;;;6.1;45.5
74435;BME280;62867;52.038;29.256;2023-02-15T14:36:50;1034.8;;;6;45.5
74435;BME280;62867;52.038;29.256;2023-02-15T14:41:42;1034.7;;;5.9;46
74435;BME280;62867;52.038;29.256;2023-02-15T14:47:03;1034.8;;;5.8;46.8
74435;BME280;62867;52.038;29.256;2023-02-15T14:51:58;1034.8;;;5.7;47.8
74435;BME280;62867;52.038;29.256;2023-02-15T14:56:25;1034.8;;;5.6;48.8
74435;BME280;62867;52.038;29.256;2023-02-15T15:01:37;1034.8;;;5.5;48.7
74435;BME280;62867;52.038;29.256;2023-02-15T15:06:56;1034.8;;;5.4;47.3
74435;BME280;62867;52.038;29.256;2023-02-15T15:11:41;1034.8;;;5.3;49.2
74435;BME280;62867;52.038;29.256;2023-02-15T15:16:30;1034.9;;;5.3;49.6
74435;BME280;62867;52.038;29.256;2023-02-15T15:22:03;1034.9;;;5.2;49.2
74435;BME280;62867;52.038;29.256;2023-02-15T15:26:35;1034.9;;;5.2;49.2
74435;BME280;62867;52.038;29.256;2023-02-15T15:31:51;1034.9;;;5.1;49.4
74435;BME280;62867;52.038;29.256;2023-02-15T15:36:17;1034.9;;;5.1;49.7
74435;BME280;62867;52.038;29.256;2023-02-15T15:41:51;1034.9;;;5;50.7
74435;BME280;62867;52.038;29.256;2023-02-15T15:46:31;1034.9;;;5;50.2
74435;BME280;62867;52.038;29.256;2023-02-15T15:51:23;1034.9;;;5;50.9
74435;BME280;62867;52.038;29.256;2023-02-15T15:56:50;1034.9;;;4.9;51
74435;BME280;62867;52.038;29.256;2023-02-15T16:01:49;1034.9;;;4.9;51.1
74435;BME280;62867;52.038;29.256;2023-02-15T16:07:13;1034.9;;;4.8;51.8
74435;BME280;62867;52.038;29.256;2023-02-15T16:11:33;1034.8;;;4.8;52.5
74435;BME280;62867;52.038;29.256;2023-02-15T16:17:01;1034.9;;;4.7;52.6
74435;BME280;62867;52.038;29.256;2023-02-15T16:21:28;1034.8;;;4.7;52.7
74435;BME280;62867;52.038;29.256;2023-02-15T16:26:51;1034.8;;;4.7;52.4
74435;BME280;62867;52.038;29.256;2023-02-15T16:31:37;1034.8;;;4.7;53.5
74435;BME280;62867;52.038;29.256;2023-02-15T16:36:49;1034.8;;;4.7;53.2
74435;BME280;62867;52.038;29.256;2023-02-15T16:41:26;1034.8;;;4.7;52.9
74435;BME280;62867;52.038;29.256;2023-02-15T16:46:48;1034.8;;;4.7;53.6
74435;BME280;62867;52.038;29.256;2023-02-15T16:51:53;1034.8;;;4.7;53.1
74435;BME280;62867;52.038;29.256;2023-02-15T16:57:01;1034.8;;;4.6;53.8
74435;BME280;62867;52.038;29.256;2023-02-15T17:02:03;1034.8;;;4.6;53.7
74435;BME280;62867;52.038;29.256;2023-02-15T17:06:56;1034.8;;;4.5;54
74435;BME280;62867;52.038;29.256;2023-02-15T17:12:00;1034.8;;;4.5;54.7
74435;BME280;62867;52.038;29.256;2023-02-15T17:16:50;1034.8;;;4.5;55.7
74435;BME280;62867;52.038;29.256;2023-02-15T17:21:39;1034.8;;;4.5;55.1
74435;BME280;62867;52.038;29.256;2023-02-15T17:26:34;1034.7;;;4.5;55
74435;BME280;62867;52.038;29.256;2023-02-15T17:31:48;1034.8;;;4.5;55.9
74435;BME280;62867;52.038;29.256;2023-02-15T17:36:39;1034.8;;;4.5;55
74435;BME280;62867;52.038;29.256;2023-02-15T17:42:01;1034.8;;;4.6;55
74435;BME280;62867;52.038;29.256;2023-02-15T17:46:24;1034.8;;;4.6;55.2
74435;BME280;62867;52.038;29.256;2023-02-15T17:52:03;1034.9;;;4.6;55.8
74435;BME280;62867;52.038;29.256;2023-02-15T17:56:45;1034.8;;;4.5;56.1
74435;BME280;62867;52.038;29.256;2023-02-15T18:01:13;1034.8;;;4.5;55.9
74435;BME280;62867;52.038;29.256;2023-02-15T18:06:11;1034.8;;;4.5;56.5
74435;BME280;62867;52.038;29.256;2023-02-15T18:11:25;1034.8;;;4.4;55.6
74435;BME280;62867;52.038;29.256;2023-02-15T18:16:38;1034.8;;;4.4;56.1
74435;BME280;62867;52.038;29.256;2023-02-15T18:21:49;1034.8;;;4.4;57.4
74435;BME280;62867;52.038;29.256;2023-02-15T18:26:13;1034.9;;;4.4;56.4
74435;BME280;62867;52.038;29.256;2023-02-15T18:31:37;1034.9;;;4.4;56.8
74435;BME280;62867;52.038;29.256;2023-02-15T18:37:02;1035;;;4.4;56.9
74435;BME280;62867;52.038;29.256;2023-02-15T18:41:14;1035;;;4.4;56.1
74435;BME280;62867;52.038;29.256;2023-02-15T18:46:47;1034.9;;;4.4;56.6
74435;BME280;62867;52.038;29.256;2023-02-15T18:51:37;1035;;;4.4;57
74435;BME280;62867;52.038;29.256;2023-02-15T18:56:28;1034.9;;;4.4;56.9
74435;BME280;62867;52.038;29.256;2023-02-15T19:01:21;1034.9;;;4.3;57.4
74435;BME280;62867;52.038;29.256;2023-02-15T19:06:23;1034.9;;;4.3;57.8
74435;BME280;62867;52.038;29.256;2023-02-15T19:11:47;1034.9;;;4.3;57.8
74435;BME280;62867;52.038;29.256;2023-02-15T19:16:27;1034.9;;;4.3;57.4
74435;BME280;62867;52.038;29.256;2023-02-15T19:21:33;1034.9;;;4.2;58.2
74435;BME280;62867;52.038;29.256;2023-02-15T19:26:39;1034.9;;;4.2;57
74435;BME280;62867;52.038;29.256;2023-02-15T19:32:01;1034.9;;;4.2;57.4
74435;BME280;62867;52.038;29.256;2023-02-15T19:36:37;1034.9;;;4.3;57.2
74435;BME280;62867;52.038;29.256;2023-02-15T19:41:47;1034.8;;;4.3;57.5
74435;BME280;62867;52.038;29.256;2023-02-15T19:46:39;1034.8;;;4.3;57.9
74435;BME280;62867;52.038;29.256;2023-02-15T19:51:11;1034.8;;;4.3;57.9
74435;BME280;62867;52.038;29.256;2023-02-15T19:56:35;1034.7;;;4.2;57.9
74435;BME280;62867;52.038;29.256;2023-02-15T20:01:21;1034.7;;;4.2;57.9
74435;BME280;62867;52.038;29.256;2023-02-15T20:07:01;1034.7;;;4.2;58.8
74435;BME280;62867;52.038;29.256;2023-02-15T20:12:05;1034.7;;;4.2;59.1
74435;BME280;62867;52.038;29.256;2023-02-15T20:16:37;1034.7;;;4.1;58.8
74435;BME280;62867;52.038;29.256;2023-02-15T20:22:01;1034.7;;;4.1;59.2
74435;BME280;62867;52.038;29.256;2023-02-15T20:27:04;1034.7;;;4.1;59.2
74435;BME280;62867;52.038;29.256;2023-02-15T20:31:21;1034.6;;;4.2;59.3
74435;BME280;62867;52.038;29.256;2023-02-15T20:36:12;1034.6;;;4.2;59.4
74435;BME280;62867;52.038;29.256;2023-02-15T20:41:59;1034.5;;;4.2;59
74435;BME280;62867;52.038;29.256;2023-02-15T20:46:11;1034.6;;;4.2;59
74435;BME280;62867;52.038;29.256;2023-02-15T20:51:39;1034.6;;;4.1;59
74435;BME280;62867;52.038;29.256;2023-02-15T20:56:49;1034.5;;;4.1;59.4
74435;BME280;62867;52.038;29.256;2023-02-15T21:01:45;1034.6;;;4.1;59.7
74435;BME280;62867;52.038;29.256;2023-02-15T21:07:00;1034.5;;;4.1;59.1
74435;BME280;62867;52.038;29.256;2023-02-15T21:11:37;1034.5;;;4.1;59.6
74435;BME280;62867;52.038;29.256;2023-02-15T21:17:03;1034.5;;;4.1;59.4
74435;BME280;62867;52.038;29.256;2023-02-15T21:21:25;1034.4;;;4.1;59.8
74435;BME280;62867;52.038;29.256;2023-02-15T21:26:35;1034.4;;;4.1;59.4
74435;BME280;62867;52.038;29.256;2023-02-15T21:31:53;1034.4;;;4.1;60.1
74435;BME280;62867;52.038;29.256;2023-02-15T21:36:38;1034.3;;;4.1;59.8
74435;BME280;62867;52.038;29.256;2023-02-15T21:41:14;1034.4;;;4.1;60.1
74435;BME280;62867;52.038;29.256;2023-02-15T21:46:37;1034.4;;;4.1;60
74435;BME280;62867;52.038;29.256;2023-02-15T21:51:45;1034.4;;;4.1;59.8
74435;BME280;62867;52.038;29.256;2023-02-15T21:56:49;1034.3;;;4;59.6
74435;BME280;62867;52.038;29.256;2023-02-15T22:01:46;1034.2;;;4;60
74435;BME280;62867;52.038;29.256;2023-02-15T22:06:11;1034.2;;;4;60.9
74435;BME280;62867;52.038;29.256;2023-02-15T22:11:59;1034.2;;;4;61
74435;BME280;62867;52.038;29.256;2023-02-15T22:16:13;1034.2;;;4;60.6
74435;BME280;62867;52.038;29.256;2023-02-15T22:21:47;1034.1;;;4;60.7
74435;BME280;62867;52.038;29.256;2023-02-15T22:26:51;1034.1;;;4;61.1
74435;BME280;62867;52.038;29.256;2023-02-15T22:31:49;1034.1;;;4.1;60.7
74435;BME280;62867;52.038;29.256;2023-02-15T22:36:47;1034;;;4.1;60.7
74435;BME280;62867;52.038;29.256;2023-02-15T22:41:47;1034;;;4.1;60.5
74435;BME280;62867;52.038;29.256;2023-02-15T22:46:23;1033.9;;;4.1;60.7
74435;BME280;62867;52.038;29.256;2023-02-15T22:52:04;1033.9;;;4.1;60.9
74435;BME280;62867;52.038;29.256;2023-02-15T22:57:03;1033.9;;;4.1;60.8
74435;BME280;62867;52.038;29.256;2023-02-15T23:01:25;1033.8;;;4.1;60.9
74435;BME280;62867;52.038;29.256;2023-02-15T23:06:59;1033.9;;;4;60.9
74435;BME280;62867;52.038;29.256;2023-02-15T23:11:11;1033.8;;;4;60.6
74435;BME280;62867;52.038;29.256;2023-02-15T23:16:47;1033.8;;;3.9;60.8
74435;BME280;62867;52.038;29.256;2023-02-15T23:21:27;1033.8;;;3.9;60.9
74435;BME280;62867;52.038;29.256;2023-02-15T23:26:49;1033.8;;;3.9;60.8
74435;BME280;62867;52.038;29.256;2023-02-15T23:31:37;1033.8;;;3.8;61.2
74435;BME280;62867;52.038;29.256;2023-02-15T23:37:01;1033.8;;;3.9;61.4
74435;BME280;62867;52.038;29.256;2023-02-15T23:41:25;1033.9;;;3.9;61.4
74435;BME280;62867;52.038;29.256;2023-02-15T23:47:01;1033.9;;;4;61.6
74435;BME280;62867;52.038;29.256;2023-02-15T23:51:50;1033.9;;;4;61.3
74435;BME280;62867;52.038;29.256;2023-02-15T23:56:12;1033.9;;;4;61.4
